createdAt,value
2023-03-05T00:01:09.522Z,4.20
2023-03-05T00:03:57.694Z,4.20
2023-03-05T00:06:44.521Z,4.20
2023-03-05T00:09:31.204Z,4.10
2023-03-05T00:12:17.793Z,4.20
2023-03-05T00:15:05.207Z,4.20
2023-03-05T00:17:53.206Z,4.30
2023-03-05T00:20:40.046Z,4.30
2023-03-05T00:23:26.888Z,4.30
2023-03-05T00:26:13.616Z,4.20
2023-03-05T00:29:00.092Z,4.20
2023-03-05T00:31:47.309Z,4.20
2023-03-05T00:34:36.287Z,4.20
2023-03-05T00:37:22.717Z,4.10
2023-03-05T00:40:10.741Z,4.20
2023-03-05T00:42:57.260Z,4.20
2023-03-05T00:45:43.733Z,4.20
2023-03-05T00:48:30.200Z,4.20
2023-03-05T00:51:18.010Z,4.10
2023-03-05T00:54:05.132Z,4.20
2023-03-05T00:56:52.046Z,4.10
2023-03-05T00:59:38.410Z,4.10
2023-03-05T01:02:25.942Z,4.10
2023-03-05T01:05:14.669Z,4.00
2023-03-05T01:08:03.244Z,4.10
2023-03-05T01:10:49.966Z,4.10
2023-03-05T01:13:36.649Z,4.10
2023-03-05T01:16:23.691Z,4.10
2023-03-05T01:19:10.171Z,4.10
2023-03-05T01:21:56.737Z,4.00
2023-03-05T01:24:44.938Z,4.00
2023-03-05T01:27:31.217Z,4.00
2023-03-05T01:30:18.031Z,3.90
2023-03-05T01:33:04.712Z,3.90
2023-03-05T01:35:51.650Z,4.00
2023-03-05T01:38:38.047Z,3.90
2023-03-05T01:41:26.803Z,3.90
2023-03-05T01:44:22.974Z,4.00
2023-03-05T01:47:09.662Z,3.90
2023-03-05T01:49:56.712Z,3.90
2023-03-05T01:52:47.345Z,3.90
2023-03-05T01:55:37.186Z,3.90
2023-03-05T01:58:26.413Z,3.80
2023-03-05T02:01:14.120Z,3.70
2023-03-05T02:04:01.386Z,3.70
2023-03-05T02:06:48.358Z,3.60
2023-03-05T02:09:34.822Z,3.70
2023-03-05T02:12:21.856Z,3.60
2023-03-05T02:15:11.532Z,3.60
2023-03-05T02:17:58.246Z,3.60
2023-03-05T02:20:47.586Z,3.50
2023-03-05T02:23:37.472Z,3.50
2023-03-05T02:26:24.072Z,3.40
2023-03-05T02:29:11.428Z,3.40
2023-03-05T02:31:57.853Z,3.40
2023-03-05T02:34:44.675Z,3.40
2023-03-05T02:37:30.964Z,3.50
2023-03-05T02:40:19.469Z,3.50
2023-03-05T02:43:06.456Z,3.40
2023-03-05T02:45:52.891Z,3.40
2023-03-05T02:48:39.316Z,3.40
2023-03-05T02:51:25.840Z,3.40
2023-03-05T02:54:12.918Z,3.40
2023-03-05T02:57:00.991Z,3.50
2023-03-05T02:59:48.278Z,3.60
2023-03-05T03:02:34.907Z,3.60
2023-03-05T03:05:21.528Z,3.60
2023-03-05T03:08:08.100Z,3.60
2023-03-05T03:10:56.367Z,3.60
2023-03-05T03:13:44.224Z,3.60
2023-03-05T03:16:31.020Z,3.60
2023-03-05T03:19:17.555Z,3.50
2023-03-05T03:22:03.921Z,3.30
2023-03-05T03:24:50.341Z,3.30
2023-03-05T03:27:36.898Z,3.20
2023-03-05T03:30:24.868Z,3.20
2023-03-05T03:33:11.630Z,3.20
2023-03-05T03:35:58.457Z,3.30
2023-03-05T03:38:45.262Z,3.30
2023-03-05T03:41:31.734Z,3.30
2023-03-05T03:44:20.320Z,3.20
2023-03-05T03:47:08.426Z,3.20
2023-03-05T03:49:55.682Z,3.30
2023-03-05T03:52:42.183Z,3.40
2023-03-05T03:55:28.431Z,3.30
2023-03-05T03:58:14.738Z,3.40
2023-03-05T04:01:01.523Z,3.30
2023-03-05T04:03:49.562Z,3.30
2023-03-05T04:06:36.227Z,3.30
2023-03-05T04:09:22.733Z,3.30
2023-03-05T04:12:09.897Z,3.20
2023-03-05T04:14:56.382Z,3.30
2023-03-05T04:17:42.943Z,3.30
2023-03-05T04:20:30.862Z,3.40
2023-03-05T04:23:17.839Z,3.50
2023-03-05T04:26:04.541Z,3.40
2023-03-05T04:28:51.433Z,3.40
2023-03-05T04:31:38.089Z,3.40
2023-03-05T04:34:24.890Z,3.50
2023-03-05T04:37:13.830Z,3.60
2023-03-05T04:40:00.587Z,3.60
2023-03-05T04:42:47.186Z,3.60
2023-03-05T04:45:33.992Z,3.60
2023-03-05T04:48:20.571Z,3.60
2023-03-05T04:51:07.132Z,3.50
2023-03-05T04:53:55.076Z,3.40
2023-03-05T04:56:41.530Z,3.60
2023-03-05T04:59:28.006Z,3.70
2023-03-05T05:02:14.542Z,3.60
2023-03-05T05:05:01.239Z,3.60
2023-03-05T05:07:48.201Z,3.50
2023-03-05T05:10:38.527Z,3.60
2023-03-05T05:13:25.349Z,3.60
2023-03-05T05:16:12.388Z,3.60
2023-03-05T05:18:58.831Z,3.60
2023-03-05T05:21:45.293Z,3.50
2023-03-05T05:24:31.576Z,3.50
2023-03-05T05:27:19.385Z,3.50
2023-03-05T05:30:07.620Z,3.50
2023-03-05T05:32:54.133Z,3.50
2023-03-05T05:35:41.080Z,3.50
2023-03-05T05:38:27.742Z,3.40
2023-03-05T05:41:16.084Z,3.40
2023-03-05T05:44:03.771Z,3.50
2023-03-05T05:46:50.314Z,3.60
2023-03-05T05:49:36.884Z,3.60
2023-03-05T05:52:23.966Z,3.50
2023-03-05T05:55:11.731Z,3.50
2023-03-05T05:57:58.458Z,3.50
2023-03-05T06:00:46.129Z,3.50
2023-03-05T06:03:32.589Z,3.40
2023-03-05T06:06:21.638Z,3.50
2023-03-05T06:09:08.118Z,3.50
2023-03-05T06:11:54.494Z,3.60
2023-03-05T06:14:40.883Z,3.50
2023-03-05T06:17:31.093Z,3.50
2023-03-05T06:20:18.244Z,3.50
2023-03-05T06:23:04.774Z,3.50
2023-03-05T06:25:51.394Z,3.60
2023-03-05T06:28:38.100Z,3.70
2023-03-05T06:31:26.789Z,3.70
2023-03-05T06:34:14.500Z,3.70
2023-03-05T06:37:00.878Z,3.70
2023-03-05T06:39:47.495Z,3.70
2023-03-05T06:42:35.723Z,3.70
2023-03-05T06:45:22.423Z,3.80
2023-03-05T06:48:09.457Z,3.70
2023-03-05T06:50:57.174Z,3.80
2023-03-05T06:53:43.669Z,3.70
2023-03-05T06:56:30.794Z,3.80
2023-03-05T06:59:18.289Z,3.70
2023-03-05T07:02:04.913Z,3.70
2023-03-05T07:04:51.302Z,3.90
2023-03-05T07:07:39.175Z,3.80
2023-03-05T07:10:25.892Z,3.70
2023-03-05T07:13:12.489Z,3.70
2023-03-05T07:15:59.371Z,3.70
2023-03-05T07:18:46.144Z,3.70
2023-03-05T07:21:34.502Z,3.80
2023-03-05T07:24:24.199Z,3.90
2023-03-05T07:27:10.820Z,4.00
2023-03-05T07:29:57.173Z,4.20
2023-03-05T07:32:43.997Z,4.40
2023-03-05T07:35:32.875Z,4.50
2023-03-05T07:38:19.522Z,4.50
2023-03-05T07:41:08.887Z,4.50
2023-03-05T07:43:56.419Z,4.50
2023-03-05T07:46:43.099Z,4.70
2023-03-05T07:49:29.732Z,4.60
2023-03-05T07:52:16.375Z,4.70
2023-03-05T07:55:02.897Z,4.70
2023-03-05T07:58:01.827Z,4.90
2023-03-05T08:00:48.855Z,4.70
2023-03-05T08:03:38.075Z,4.90
2023-03-05T08:06:24.753Z,5.00
2023-03-05T08:09:14.004Z,5.30
2023-03-05T08:12:01.078Z,5.40
2023-03-05T08:14:49.279Z,5.60
2023-03-05T08:17:36.135Z,5.80
2023-03-05T08:20:25.662Z,6.00
2023-03-05T08:23:12.909Z,6.20
2023-03-05T08:25:59.865Z,6.30
2023-03-05T08:28:46.411Z,6.30
2023-03-05T08:31:34.428Z,6.30
2023-03-05T08:34:21.016Z,6.20
2023-03-05T08:37:09.179Z,6.10
2023-03-05T08:39:56.208Z,5.90
2023-03-05T08:42:42.860Z,5.50
2023-03-05T08:45:29.606Z,5.30
2023-03-05T08:48:17.583Z,5.30
2023-03-05T08:51:08.416Z,5.00
2023-03-05T08:53:58.790Z,5.00
2023-03-05T08:56:46.065Z,5.10
2023-03-05T08:59:32.562Z,5.20
2023-03-05T09:02:18.966Z,5.30
2023-03-05T09:05:08.013Z,5.60
2023-03-05T09:07:54.356Z,5.80
2023-03-05T09:10:42.378Z,5.90
2023-03-05T09:13:29.069Z,6.10
2023-03-05T09:16:17.563Z,6.30
2023-03-05T09:19:03.969Z,6.30
2023-03-05T09:21:55.369Z,6.50
2023-03-05T09:24:43.464Z,6.60
2023-03-05T09:27:29.806Z,6.60
2023-03-05T09:30:17.627Z,6.60
2023-03-05T09:33:04.524Z,6.60
2023-03-05T09:35:50.913Z,6.80
2023-03-05T09:38:39.140Z,6.90
2023-03-05T09:41:37.844Z,7.00
2023-03-05T09:44:31.137Z,7.00
2023-03-05T09:47:32.350Z,7.10
2023-03-05T09:50:32.408Z,7.10
2023-03-05T09:53:26.901Z,6.70
2023-03-05T09:56:17.888Z,6.70
2023-03-05T09:59:13.574Z,6.70
2023-03-05T10:02:04.297Z,6.80
2023-03-05T10:04:55.973Z,6.90
2023-03-05T10:07:46.840Z,7.00
2023-03-05T10:10:41.476Z,6.80
2023-03-05T10:13:33.685Z,6.70
2023-03-05T10:16:41.484Z,6.60
2023-03-05T10:19:48.470Z,6.30
2023-03-05T10:22:43.825Z,6.30
2023-03-05T10:25:42.692Z,6.40
2023-03-05T10:28:40.307Z,6.60
2023-03-05T10:31:52.549Z,6.70
2023-03-05T10:34:56.960Z,6.90
2023-03-05T10:37:56.359Z,7.00
2023-03-05T10:40:46.771Z,7.00
2023-03-05T10:43:43.640Z,6.90
2023-03-05T10:46:35.759Z,6.90
2023-03-05T10:49:27.868Z,7.10
2023-03-05T10:52:18.729Z,7.10
2023-03-05T10:55:15.566Z,7.10
2023-03-05T10:58:03.153Z,7.00
2023-03-05T11:01:04.184Z,6.90
2023-03-05T11:03:57.688Z,6.60
2023-03-05T11:06:46.026Z,6.50
2023-03-05T11:09:32.851Z,6.50
2023-03-05T11:12:21.200Z,6.60
2023-03-05T11:15:27.736Z,6.50
2023-03-05T11:18:21.252Z,6.60
2023-03-05T11:21:13.471Z,6.70
2023-03-05T11:24:13.974Z,6.90
2023-03-05T11:27:00.676Z,7.00
2023-03-05T11:29:49.915Z,7.10
2023-03-05T11:32:36.724Z,7.00
2023-03-05T11:35:32.154Z,7.00
2023-03-05T11:38:20.858Z,7.00
2023-03-05T11:41:11.392Z,6.90
2023-03-05T11:43:59.368Z,6.70
2023-03-05T11:46:48.926Z,6.60
2023-03-05T11:49:39.827Z,6.60
2023-03-05T11:52:32.145Z,6.40
2023-03-05T11:55:21.619Z,6.10
2023-03-05T11:58:29.234Z,6.10
2023-03-05T12:01:17.883Z,6.20
2023-03-05T12:04:08.439Z,6.00
2023-03-05T12:06:58.783Z,6.00
2023-03-05T12:09:49.400Z,6.00
2023-03-05T12:12:42.152Z,6.00
2023-03-05T12:15:48.203Z,6.30
2023-03-05T12:18:42.380Z,6.20
2023-03-05T12:21:36.749Z,6.40
2023-03-05T12:24:40.025Z,6.40
2023-03-05T12:27:36.793Z,6.40
2023-03-05T12:30:55.211Z,6.70
2023-03-05T12:33:43.284Z,7.00
2023-03-05T12:36:40.794Z,7.30
2023-03-05T12:39:52.524Z,7.40
2023-03-05T12:42:49.028Z,7.40
2023-03-05T12:45:41.851Z,7.50
2023-03-05T12:48:46.573Z,7.50
2023-03-05T12:51:39.753Z,7.40
2023-03-05T12:54:31.570Z,7.20
2023-03-05T12:57:20.802Z,7.00
2023-03-05T13:00:13.142Z,7.00
2023-03-05T13:03:01.755Z,7.00
2023-03-05T13:05:53.478Z,7.10
2023-03-05T13:08:40.052Z,7.20
2023-03-05T13:11:27.273Z,7.10
2023-03-05T13:14:34.345Z,6.90
2023-03-05T13:17:29.793Z,7.00
2023-03-05T13:20:29.816Z,9.60
2023-03-05T13:23:20.961Z,11.10
2023-03-05T13:26:15.323Z,12.00
2023-03-05T13:29:08.108Z,11.00
2023-03-05T13:31:57.415Z,9.70
2023-03-05T13:34:48.205Z,8.80
2023-03-05T13:37:38.306Z,8.20
2023-03-05T13:40:26.992Z,7.90
2023-03-05T13:43:19.843Z,7.50
2023-03-05T13:46:06.582Z,7.20
2023-03-05T13:48:52.987Z,7.00
2023-03-05T13:51:44.637Z,7.10
2023-03-05T13:54:31.499Z,7.10
2023-03-05T13:57:36.278Z,7.20
2023-03-05T14:00:32.183Z,7.20
2023-03-05T14:03:24.600Z,7.30
2023-03-05T14:06:12.685Z,7.30
2023-03-05T14:09:20.553Z,7.20
2023-03-05T14:12:22.156Z,7.10
2023-03-05T14:15:23.159Z,7.20
2023-03-05T14:18:18.363Z,7.10
2023-03-05T14:21:08.827Z,7.00
2023-03-05T14:23:57.802Z,6.90
2023-03-05T14:26:51.658Z,6.70
2023-03-05T14:29:38.811Z,6.70
2023-03-05T14:32:31.693Z,6.80
2023-03-05T14:35:21.515Z,6.80
2023-03-05T14:38:08.753Z,6.70
2023-03-05T14:40:55.352Z,6.60
2023-03-05T14:43:43.378Z,6.60
2023-03-05T14:46:30.349Z,6.50
2023-03-05T14:49:16.868Z,6.30
2023-03-05T14:52:06.579Z,6.20
2023-03-05T14:54:54.059Z,6.20
2023-03-05T14:57:40.431Z,6.20
2023-03-05T15:00:31.671Z,6.20
2023-03-05T15:03:19.130Z,6.20
2023-03-05T15:06:15.174Z,6.20
2023-03-05T15:09:01.974Z,6.30
2023-03-05T15:11:49.256Z,6.30
2023-03-05T15:14:35.724Z,6.30
2023-03-05T15:17:26.938Z,6.30
2023-03-05T15:20:17.317Z,6.30
2023-03-05T15:23:03.766Z,6.40
2023-03-05T15:25:50.309Z,6.50
2023-03-05T15:28:38.677Z,6.40
2023-03-05T15:31:25.375Z,6.40
2023-03-05T15:34:13.690Z,6.30
2023-03-05T15:37:00.108Z,6.30
2023-03-05T15:39:46.418Z,6.30
2023-03-05T15:42:32.777Z,6.20
2023-03-05T15:45:19.373Z,6.10
2023-03-05T15:48:06.192Z,6.20
2023-03-05T15:50:53.990Z,6.20
2023-03-05T15:53:40.627Z,6.30
2023-03-05T15:56:27.095Z,6.20
2023-03-05T15:59:14.293Z,6.20
2023-03-05T16:02:01.759Z,6.20
2023-03-05T16:04:48.132Z,6.20
2023-03-05T16:07:40.058Z,6.20
2023-03-05T16:10:29.103Z,6.10
2023-03-05T16:13:21.289Z,6.10
2023-03-05T16:16:09.343Z,6.10
2023-03-05T16:18:56.140Z,6.10
2023-03-05T16:21:44.134Z,6.00
2023-03-05T16:24:33.235Z,6.00
2023-03-05T16:27:19.901Z,6.00
2023-03-05T16:30:07.477Z,6.00
2023-03-05T16:32:54.070Z,6.00
2023-03-05T16:35:40.482Z,6.00
2023-03-05T16:38:26.741Z,5.90
2023-03-05T16:41:15.648Z,5.90
2023-03-05T16:44:02.051Z,5.90
2023-03-05T16:46:53.212Z,5.90
2023-03-05T16:49:40.343Z,5.90
2023-03-05T16:52:26.732Z,5.90
2023-03-05T16:55:13.406Z,5.80
2023-03-05T16:58:01.682Z,5.80
2023-03-05T17:00:49.123Z,5.70
2023-03-05T17:03:38.789Z,5.80
2023-03-05T17:06:27.405Z,5.80
2023-03-05T17:09:14.177Z,5.70
2023-03-05T17:12:00.593Z,5.80
2023-03-05T17:14:50.904Z,5.70
2023-03-05T17:17:38.858Z,5.70
2023-03-05T17:20:25.235Z,5.80
2023-03-05T17:23:11.588Z,5.70
2023-03-05T17:25:58.244Z,5.70
2023-03-05T17:28:45.580Z,5.60
2023-03-05T17:31:33.997Z,5.60
2023-03-05T17:34:23.469Z,5.50
2023-03-05T17:37:18.485Z,5.60
2023-03-05T17:40:05.624Z,5.60
2023-03-05T17:42:52.171Z,5.40
2023-03-05T17:45:38.929Z,5.50
2023-03-05T17:48:26.907Z,5.40
2023-03-05T17:51:16.547Z,5.40
2023-03-05T17:54:03.139Z,5.40
2023-03-05T17:56:49.631Z,5.40
2023-03-05T17:59:36.016Z,5.50
2023-03-05T18:02:22.421Z,5.40
2023-03-05T18:05:11.798Z,5.40
2023-03-05T18:07:59.024Z,5.50
2023-03-05T18:10:45.440Z,5.50
2023-03-05T18:13:31.890Z,5.50
2023-03-05T18:16:18.486Z,5.40
2023-03-05T18:19:05.308Z,5.40
2023-03-05T18:21:53.316Z,5.40
2023-03-05T18:24:39.946Z,5.40
2023-03-05T18:27:26.480Z,5.30
2023-03-05T18:30:13.665Z,5.40
2023-03-05T18:33:00.958Z,5.30
2023-03-05T18:35:49.581Z,5.40
2023-03-05T18:38:39.185Z,5.30
2023-03-05T18:41:30.974Z,5.20
2023-03-05T18:44:19.150Z,5.20
2023-03-05T18:47:06.918Z,5.10
2023-03-05T18:49:53.253Z,5.00
2023-03-05T18:52:39.662Z,5.00
2023-03-05T18:55:29.740Z,4.80
2023-03-05T18:58:17.380Z,4.70
2023-03-05T19:01:04.342Z,4.60
2023-03-05T19:03:50.977Z,4.60
2023-03-05T19:06:38.308Z,4.70
2023-03-05T19:09:54.592Z,4.60
2023-03-05T19:13:08.019Z,4.60
2023-03-05T19:15:54.562Z,4.50
2023-03-05T19:19:16.800Z,4.40
2023-03-05T19:22:03.415Z,4.40
2023-03-05T19:24:50.105Z,4.30
2023-03-05T19:27:36.605Z,4.30
2023-03-05T19:30:24.979Z,4.30
2023-03-05T19:33:11.339Z,4.30
2023-03-05T19:35:57.905Z,4.30
2023-03-05T19:38:44.191Z,4.40
2023-03-05T19:41:30.624Z,4.40
2023-03-05T19:44:17.274Z,4.40
2023-03-05T19:47:05.361Z,4.50
2023-03-05T19:49:52.285Z,4.50
2023-03-05T19:52:39.127Z,4.50
2023-03-05T19:55:25.783Z,4.50
2023-03-05T19:58:12.626Z,4.60
2023-03-05T20:01:08.906Z,4.60
2023-03-05T20:03:58.485Z,4.70
2023-03-05T20:06:47.153Z,4.70
2023-03-05T20:09:33.495Z,4.70
2023-03-05T20:12:19.879Z,4.80
2023-03-05T20:15:07.189Z,4.70
2023-03-05T20:17:54.021Z,4.70
2023-03-05T20:20:42.170Z,4.70
2023-03-05T20:23:29.882Z,4.70
2023-03-05T20:26:16.559Z,4.60
2023-03-05T20:29:05.794Z,4.70
2023-03-05T20:31:56.434Z,4.70
2023-03-05T20:34:43.284Z,4.70
2023-03-05T20:38:20.797Z,4.70
2023-03-05T20:41:08.779Z,4.70
2023-03-05T20:43:55.218Z,4.70
2023-03-05T20:47:30.059Z,4.60
2023-03-05T20:50:16.877Z,4.70
2023-03-05T20:53:04.839Z,4.60
2023-03-05T20:55:51.581Z,4.50
2023-03-05T20:58:38.804Z,4.60
2023-03-05T21:01:25.986Z,4.70
2023-03-05T21:04:12.589Z,4.70
2023-03-05T21:07:00.635Z,4.70
2023-03-05T21:09:48.702Z,4.70
2023-03-05T21:12:35.282Z,4.50
2023-03-05T21:15:24.466Z,4.60
2023-03-05T21:18:11.291Z,4.60
2023-03-05T21:20:57.684Z,4.60
2023-03-05T21:23:44.215Z,4.70
2023-03-05T21:26:33.079Z,4.60
2023-03-05T21:29:19.519Z,4.60
2023-03-05T21:32:06.090Z,4.60
2023-03-05T21:34:52.768Z,4.60
2023-03-05T21:37:42.445Z,4.70
2023-03-05T21:40:30.235Z,4.60
2023-03-05T21:43:20.533Z,4.60
2023-03-05T21:46:07.469Z,4.60
2023-03-05T21:48:54.434Z,4.60
2023-03-05T21:52:06.490Z,4.60
2023-03-05T21:54:54.492Z,4.50
2023-03-05T21:57:40.942Z,4.50
2023-03-05T22:00:29.735Z,4.60
2023-03-05T22:03:16.217Z,4.50
2023-03-05T22:06:02.754Z,4.50
2023-03-05T22:08:49.358Z,4.50
2023-03-05T22:11:36.037Z,4.50
2023-03-05T22:14:22.472Z,4.50
2023-03-05T22:17:10.437Z,4.40
2023-03-05T22:19:57.214Z,4.50
2023-03-05T22:22:44.024Z,4.50
2023-03-05T22:25:30.540Z,4.50
2023-03-05T22:28:16.783Z,4.50
2023-03-05T22:31:03.591Z,4.60
2023-03-05T22:33:52.024Z,4.50
2023-03-05T22:36:38.381Z,4.50
2023-03-05T22:39:24.709Z,4.40
2023-03-05T22:42:11.033Z,4.50
2023-03-05T22:44:58.060Z,4.60
2023-03-05T22:47:46.987Z,4.50
2023-03-05T22:50:35.196Z,4.50
2023-03-05T22:53:21.831Z,4.50
2023-03-05T22:56:08.938Z,4.50
2023-03-05T22:58:55.899Z,4.40
2023-03-05T23:01:42.221Z,4.40
2023-03-05T23:05:00.537Z,4.50
2023-03-05T23:07:48.916Z,4.40
2023-03-05T23:10:36.326Z,4.50
2023-03-05T23:13:22.623Z,4.40
2023-03-05T23:16:10.492Z,4.40
2023-03-05T23:18:57.050Z,4.50
2023-03-05T23:21:43.746Z,4.60
2023-03-05T23:24:31.512Z,4.50
2023-03-05T23:27:19.625Z,4.60
2023-03-05T23:30:20.551Z,4.50
2023-03-05T23:33:08.943Z,4.60
2023-03-05T23:35:57.606Z,4.40
2023-03-05T23:38:45.266Z,4.40
2023-03-05T23:41:33.429Z,4.50
2023-03-05T23:44:20.218Z,4.40
2023-03-05T23:47:07.275Z,4.40
2023-03-05T23:49:54.482Z,4.40
2023-03-05T23:52:41.424Z,4.50
2023-03-05T23:55:30.395Z,4.50
2023-03-05T23:58:20.216Z,4.40
